Hauptseite
METAR-TAF:

METAR-TAF

Flughäfen :

Front Royal, Virginia, Vereinigte Staaten

Breite: 38-55-03N, Länge: 078-15-12W, Höhe: 216 m

Beobachtung

Neuester Wetterbericht von vor 17 Minuten, um 20:35 UTC
Wind 4 kt aus Süd/Südost
Temperatur 8°C
Luftfeuchtigkeit 100%
Luftdruck 1009 hPa
Sichtweite: 16.1 km
Aufgelockert bewölkt in der Höhe von 700 ft
Geschlossene Wolkendecke in der Höhe von 3100 ft

METAR: KFRR 092035Z AUTO 15004KT 10SM SCT007 OVC031 08/08 A2979 RMK AO1

Zeit: 15:52 (20:52 UTC)


TAF: fehlend

Wetterbeobachtungen und Prognosen von mehr als 4000 Flughäfen (METAR und TAF Bericht).

Die verfügbaren Stationen werden durch gelbe und rote Markierungen auf der Karte dargestellt.

Führen Sie die Maus auf sie, um den Namen der Station zu sehen.

Darauf klicken, um die Beobachtung von Wetterbeobachtungen und Prognosen zu sehen.

Um die Karte zu ändern : klicken Sie auf den grünen Tasten mit einem schwarzen Kreuz Zum Vergrößern, auf den grünen Button mit einem Gedankenstrich zu verkleinern, oder auf die grünen Pfeile für benachbarte Karten.


METAR-TAF: